sensor_id;sensor_type;location;lat;lon;timestamp;temperature;humidity
70079;DHT22;57451;52.496;13.456;2023-08-07T00:02:14;15.80;71.80
70079;DHT22;57451;52.496;13.456;2023-08-07T00:04:41;15.90;71.90
70079;DHT22;57451;52.496;13.456;2023-08-07T00:07:09;15.80;71.60
70079;DHT22;57451;52.496;13.456;2023-08-07T00:09:36;15.80;71.80
70079;DHT22;57451;52.496;13.456;2023-08-07T00:12:04;15.80;71.90
70079;DHT22;57451;52.496;13.456;2023-08-07T00:14:31;15.80;71.80
70079;DHT22;57451;52.496;13.456;2023-08-07T00:17:00;15.80;71.80
70079;DHT22;57451;52.496;13.456;2023-08-07T00:19:27;15.80;71.80
70079;DHT22;57451;52.496;13.456;2023-08-07T00:21:55;15.80;71.90
70079;DHT22;57451;52.496;13.456;2023-08-07T00:24:22;15.80;71.70
70079;DHT22;57451;52.496;13.456;2023-08-07T00:26:50;15.80;71.90
70079;DHT22;57451;52.496;13.456;2023-08-07T00:29:17;15.80;71.80
70079;DHT22;57451;52.496;13.456;2023-08-07T00:31:44;15.80;72.00
70079;DHT22;57451;52.496;13.456;2023-08-07T00:34:15;15.80;72.00
70079;DHT22;57451;52.496;13.456;2023-08-07T00:36:43;15.80;72.50
70079;DHT22;57451;52.496;13.456;2023-08-07T00:39:10;15.80;72.90
70079;DHT22;57451;52.496;13.456;2023-08-07T00:41:39;15.80;73.30
70079;DHT22;57451;52.496;13.456;2023-08-07T00:44:07;15.80;73.40
70079;DHT22;57451;52.496;13.456;2023-08-07T00:46:34;15.80;73.60
70079;DHT22;57451;52.496;13.456;2023-08-07T00:49:03;15.80;74.10
70079;DHT22;57451;52.496;13.456;2023-08-07T00:51:32;15.80;74.40
70079;DHT22;57451;52.496;13.456;2023-08-07T00:54:01;15.80;74.30
70079;DHT22;57451;52.496;13.456;2023-08-07T00:56:30;15.80;74.00
70079;DHT22;57451;52.496;13.456;2023-08-07T00:58:58;15.90;74.50
70079;DHT22;57451;52.496;13.456;2023-08-07T01:01:26;15.80;74.10
70079;DHT22;57451;52.496;13.456;2023-08-07T01:03:54;15.80;74.10
70079;DHT22;57451;52.496;13.456;2023-08-07T01:06:21;15.80;74.40
70079;DHT22;57451;52.496;13.456;2023-08-07T01:08:50;15.80;74.20
70079;DHT22;57451;52.496;13.456;2023-08-07T01:11:23;15.80;74.30
70079;DHT22;57451;52.496;13.456;2023-08-07T01:14:00;15.80;73.90
70079;DHT22;57451;52.496;13.456;2023-08-07T01:16:34;15.80;73.90
70079;DHT22;57451;52.496;13.456;2023-08-07T01:19:04;15.80;73.70
70079;DHT22;57451;52.496;13.456;2023-08-07T01:21:35;15.80;73.60
70079;DHT22;57451;52.496;13.456;2023-08-07T01:24:05;15.80;73.50
70079;DHT22;57451;52.496;13.456;2023-08-07T01:26:33;15.80;73.50
70079;DHT22;57451;52.496;13.456;2023-08-07T01:29:06;15.80;73.50
70079;DHT22;57451;52.496;13.456;2023-08-07T01:31:39;15.80;73.50
70079;DHT22;57451;52.496;13.456;2023-08-07T01:34:08;15.80;73.30
70079;DHT22;57451;52.496;13.456;2023-08-07T01:36:39;15.80;73.40
70079;DHT22;57451;52.496;13.456;2023-08-07T01:39:08;15.80;73.60
70079;DHT22;57451;52.496;13.456;2023-08-07T01:41:36;15.80;73.60
70079;DHT22;57451;52.496;13.456;2023-08-07T01:44:04;15.80;73.60
70079;DHT22;57451;52.496;13.456;2023-08-07T01:46:32;15.80;73.80
70079;DHT22;57451;52.496;13.456;2023-08-07T01:48:59;15.90;73.80
70079;DHT22;57451;52.496;13.456;2023-08-07T01:51:27;15.80;74.00
70079;DHT22;57451;52.496;13.456;2023-08-07T01:53:54;15.80;73.70
70079;DHT22;57451;52.496;13.456;2023-08-07T01:56:23;15.80;73.60
70079;DHT22;57451;52.496;13.456;2023-08-07T01:58:50;15.80;73.70
70079;DHT22;57451;52.496;13.456;2023-08-07T02:01:18;15.80;73.80
70079;DHT22;57451;52.496;13.456;2023-08-07T02:03:45;15.80;73.80
70079;DHT22;57451;52.496;13.456;2023-08-07T02:06:12;15.80;74.10
70079;DHT22;57451;52.496;13.456;2023-08-07T02:08:40;15.80;74.30
70079;DHT22;57451;52.496;13.456;2023-08-07T02:11:07;15.70;74.60
70079;DHT22;57451;52.496;13.456;2023-08-07T02:13:38;15.70;74.70
70079;DHT22;57451;52.496;13.456;2023-08-07T02:16:05;15.70;74.60
70079;DHT22;57451;52.496;13.456;2023-08-07T02:18:33;15.60;75.20
70079;DHT22;57451;52.496;13.456;2023-08-07T02:21:00;15.60;75.00
70079;DHT22;57451;52.496;13.456;2023-08-07T02:23:27;15.60;74.90
70079;DHT22;57451;52.496;13.456;2023-08-07T02:25:56;15.60;75.30
70079;DHT22;57451;52.496;13.456;2023-08-07T02:28:23;15.50;75.60
70079;DHT22;57451;52.496;13.456;2023-08-07T02:30:52;15.50;75.80
70079;DHT22;57451;52.496;13.456;2023-08-07T02:33:21;15.50;76.20
70079;DHT22;57451;52.496;13.456;2023-08-07T02:35:48;15.50;76.40
70079;DHT22;57451;52.496;13.456;2023-08-07T02:38:18;15.50;76.20
70079;DHT22;57451;52.496;13.456;2023-08-07T02:40:46;15.50;76.10
70079;DHT22;57451;52.496;13.456;2023-08-07T02:43:13;15.50;76.40
70079;DHT22;57451;52.496;13.456;2023-08-07T02:45:40;15.50;76.40
70079;DHT22;57451;52.496;13.456;2023-08-07T02:48:09;15.50;76.50
70079;DHT22;57451;52.496;13.456;2023-08-07T02:50:36;15.50;76.70
70079;DHT22;57451;52.496;13.456;2023-08-07T02:53:04;15.50;76.80
70079;DHT22;57451;52.496;13.456;2023-08-07T02:55:31;15.60;77.10
70079;DHT22;57451;52.496;13.456;2023-08-07T02:57:58;15.60;77.20
70079;DHT22;57451;52.496;13.456;2023-08-07T03:00:26;15.60;76.80
70079;DHT22;57451;52.496;13.456;2023-08-07T03:02:53;15.60;77.60
70079;DHT22;57451;52.496;13.456;2023-08-07T03:05:22;15.60;77.90
70079;DHT22;57451;52.496;13.456;2023-08-07T03:07:49;15.60;78.20
70079;DHT22;57451;52.496;13.456;2023-08-07T03:10:17;15.60;78.30
70079;DHT22;57451;52.496;13.456;2023-08-07T03:12:44;15.60;78.30
70079;DHT22;57451;52.496;13.456;2023-08-07T03:15:12;15.60;78.10
70079;DHT22;57451;52.496;13.456;2023-08-07T03:17:39;15.60;77.80
70079;DHT22;57451;52.496;13.456;2023-08-07T03:20:07;15.60;78.20
70079;DHT22;57451;52.496;13.456;2023-08-07T03:22:37;15.60;78.30
70079;DHT22;57451;52.496;13.456;2023-08-07T03:25:06;15.70;78.10
70079;DHT22;57451;52.496;13.456;2023-08-07T03:27:33;15.70;78.30
70079;DHT22;57451;52.496;13.456;2023-08-07T03:30:00;15.70;78.10
70079;DHT22;57451;52.496;13.456;2023-08-07T03:32:29;15.70;77.90
70079;DHT22;57451;52.496;13.456;2023-08-07T03:34:57;15.70;78.40
70079;DHT22;57451;52.496;13.456;2023-08-07T03:37:25;15.70;78.60
70079;DHT22;57451;52.496;13.456;2023-08-07T03:39:53;15.70;78.40
70079;DHT22;57451;52.496;13.456;2023-08-07T03:42:21;15.70;78.40
70079;DHT22;57451;52.496;13.456;2023-08-07T03:44:48;15.70;78.60
70079;DHT22;57451;52.496;13.456;2023-08-07T03:47:16;15.70;78.90
70079;DHT22;57451;52.496;13.456;2023-08-07T03:49:43;15.70;78.70
70079;DHT22;57451;52.496;13.456;2023-08-07T03:52:10;15.60;79.00
70079;DHT22;57451;52.496;13.456;2023-08-07T03:54:39;15.60;79.20
70079;DHT22;57451;52.496;13.456;2023-08-07T03:57:07;15.70;79.10
70079;DHT22;57451;52.496;13.456;2023-08-07T03:59:35;15.60;79.10
70079;DHT22;57451;52.496;13.456;2023-08-07T04:02:03;15.60;79.40
70079;DHT22;57451;52.496;13.456;2023-08-07T04:04:31;15.60;79.10
70079;DHT22;57451;52.496;13.456;2023-08-07T04:06:58;15.70;79.00
70079;DHT22;57451;52.496;13.456;2023-08-07T04:09:25;15.60;79.10
70079;DHT22;57451;52.496;13.456;2023-08-07T04:11:54;15.60;79.40
70079;DHT22;57451;52.496;13.456;2023-08-07T04:14:24;15.60;79.50
70079;DHT22;57451;52.496;13.456;2023-08-07T04:16:51;15.60;79.50
70079;DHT22;57451;52.496;13.456;2023-08-07T04:19:18;15.50;79.70
70079;DHT22;57451;52.496;13.456;2023-08-07T04:21:46;15.50;79.70
70079;DHT22;57451;52.496;13.456;2023-08-07T04:24:13;15.60;79.60
70079;DHT22;57451;52.496;13.456;2023-08-07T04:26:40;15.60;79.50
70079;DHT22;57451;52.496;13.456;2023-08-07T04:29:08;15.60;79.60
70079;DHT22;57451;52.496;13.456;2023-08-07T04:31:37;15.50;79.60
70079;DHT22;57451;52.496;13.456;2023-08-07T04:34:05;15.60;79.50
70079;DHT22;57451;52.496;13.456;2023-08-07T04:36:33;15.60;79.30
70079;DHT22;57451;52.496;13.456;2023-08-07T04:39:00;15.60;79.40
70079;DHT22;57451;52.496;13.456;2023-08-07T04:41:28;15.60;79.40
70079;DHT22;57451;52.496;13.456;2023-08-07T04:43:55;15.60;79.30
70079;DHT22;57451;52.496;13.456;2023-08-07T04:46:23;15.60;79.20
70079;DHT22;57451;52.496;13.456;2023-08-07T04:48:51;15.70;79.10
70079;DHT22;57451;52.496;13.456;2023-08-07T04:51:19;15.70;78.90
70079;DHT22;57451;52.496;13.456;2023-08-07T04:53:47;15.60;78.90
70079;DHT22;57451;52.496;13.456;2023-08-07T04:56:17;15.60;79.20
70079;DHT22;57451;52.496;13.456;2023-08-07T04:58:45;15.60;79.00
70079;DHT22;57451;52.496;13.456;2023-08-07T05:01:12;15.60;78.80
70079;DHT22;57451;52.496;13.456;2023-08-07T05:03:39;15.70;78.70
70079;DHT22;57451;52.496;13.456;2023-08-07T05:06:08;15.70;78.60
70079;DHT22;57451;52.496;13.456;2023-08-07T05:08:36;15.70;78.50
70079;DHT22;57451;52.496;13.456;2023-08-07T05:11:04;15.80;78.20
70079;DHT22;57451;52.496;13.456;2023-08-07T05:13:31;15.70;78.10
70079;DHT22;57451;52.496;13.456;2023-08-07T05:15:58;15.80;78.20
70079;DHT22;57451;52.496;13.456;2023-08-07T05:18:26;15.80;77.90
70079;DHT22;57451;52.496;13.456;2023-08-07T05:20:53;15.80;78.10
70079;DHT22;57451;52.496;13.456;2023-08-07T05:23:22;15.80;77.90
70079;DHT22;57451;52.496;13.456;2023-08-07T05:25:49;15.80;77.60
70079;DHT22;57451;52.496;13.456;2023-08-07T05:28:17;15.70;77.50
70079;DHT22;57451;52.496;13.456;2023-08-07T05:30:44;15.70;77.30
70079;DHT22;57451;52.496;13.456;2023-08-07T05:33:12;15.70;77.20
70079;DHT22;57451;52.496;13.456;2023-08-07T05:35:42;15.80;77.30
70079;DHT22;57451;52.496;13.456;2023-08-07T05:38:09;15.80;77.00
70079;DHT22;57451;52.496;13.456;2023-08-07T05:40:38;15.80;76.90
70079;DHT22;57451;52.496;13.456;2023-08-07T05:43:07;15.80;76.90
70079;DHT22;57451;52.496;13.456;2023-08-07T05:45:34;15.80;76.80
70079;DHT22;57451;52.496;13.456;2023-08-07T05:48:01;15.80;76.70
70079;DHT22;57451;52.496;13.456;2023-08-07T05:50:29;15.80;76.60
70079;DHT22;57451;52.496;13.456;2023-08-07T05:52:56;15.80;76.60
70079;DHT22;57451;52.496;13.456;2023-08-07T05:55:23;15.80;76.80
70079;DHT22;57451;52.496;13.456;2023-08-07T05:57:52;15.70;76.90
70079;DHT22;57451;52.496;13.456;2023-08-07T06:00:20;15.80;76.70
70079;DHT22;57451;52.496;13.456;2023-08-07T06:02:47;15.80;76.90
70079;DHT22;57451;52.496;13.456;2023-08-07T06:05:15;15.90;77.00
70079;DHT22;57451;52.496;13.456;2023-08-07T06:07:43;15.90;76.60
70079;DHT22;57451;52.496;13.456;2023-08-07T06:10:10;16.00;76.60
70079;DHT22;57451;52.496;13.456;2023-08-07T06:12:38;16.10;76.30
70079;DHT22;57451;52.496;13.456;2023-08-07T06:15:07;16.10;76.10
70079;DHT22;57451;52.496;13.456;2023-08-07T06:17:35;16.10;76.00
70079;DHT22;57451;52.496;13.456;2023-08-07T06:20:03;16.20;76.10
70079;DHT22;57451;52.496;13.456;2023-08-07T06:22:32;16.20;75.80
70079;DHT22;57451;52.496;13.456;2023-08-07T06:25:00;16.20;75.60
70079;DHT22;57451;52.496;13.456;2023-08-07T06:27:27;16.20;75.50
70079;DHT22;57451;52.496;13.456;2023-08-07T06:29:54;16.30;75.30
70079;DHT22;57451;52.496;13.456;2023-08-07T06:32:25;16.40;74.80
70079;DHT22;57451;52.496;13.456;2023-08-07T06:34:52;16.30;74.90
70079;DHT22;57451;52.496;13.456;2023-08-07T06:37:20;16.40;75.00
70079;DHT22;57451;52.496;13.456;2023-08-07T06:39:47;16.50;74.70
70079;DHT22;57451;52.496;13.456;2023-08-07T06:42:15;16.50;74.60
70079;DHT22;57451;52.496;13.456;2023-08-07T06:44:44;16.50;74.10
70079;DHT22;57451;52.496;13.456;2023-08-07T06:47:12;16.60;73.30
70079;DHT22;57451;52.496;13.456;2023-08-07T06:49:40;16.70;73.30
70079;DHT22;57451;52.496;13.456;2023-08-07T06:52:07;16.70;72.60
70079;DHT22;57451;52.496;13.456;2023-08-07T06:54:35;16.70;72.40
70079;DHT22;57451;52.496;13.456;2023-08-07T06:57:03;16.80;72.00
70079;DHT22;57451;52.496;13.456;2023-08-07T06:59:30;16.80;72.00
70079;DHT22;57451;52.496;13.456;2023-08-07T07:01:57;16.90;71.80
70079;DHT22;57451;52.496;13.456;2023-08-07T07:04:25;17.00;71.50
70079;DHT22;57451;52.496;13.456;2023-08-07T07:06:54;17.00;71.60
70079;DHT22;57451;52.496;13.456;2023-08-07T07:09:21;17.10;70.80
70079;DHT22;57451;52.496;13.456;2023-08-07T07:11:49;17.20;71.20
70079;DHT22;57451;52.496;13.456;2023-08-07T07:14:16;17.20;70.70
70079;DHT22;57451;52.496;13.456;2023-08-07T07:16:44;17.30;70.80
70079;DHT22;57451;52.496;13.456;2023-08-07T07:19:11;17.40;70.30
70079;DHT22;57451;52.496;13.456;2023-08-07T07:21:38;17.40;70.30
70079;DHT22;57451;52.496;13.456;2023-08-07T07:24:07;17.40;69.30
70079;DHT22;57451;52.496;13.456;2023-08-07T07:26:34;17.50;69.60
70079;DHT22;57451;52.496;13.456;2023-08-07T07:29:02;17.60;69.50
70079;DHT22;57451;52.496;13.456;2023-08-07T07:31:30;17.70;68.50
70079;DHT22;57451;52.496;13.456;2023-08-07T07:33:58;17.60;68.40
70079;DHT22;57451;52.496;13.456;2023-08-07T07:36:25;17.70;68.70
70079;DHT22;57451;52.496;13.456;2023-08-07T07:38:53;17.70;68.90
70079;DHT22;57451;52.496;13.456;2023-08-07T07:41:22;17.80;68.30
70079;DHT22;57451;52.496;13.456;2023-08-07T07:43:50;17.80;68.00
70079;DHT22;57451;52.496;13.456;2023-08-07T07:46:17;17.80;66.00
70079;DHT22;57451;52.496;13.456;2023-08-07T07:48:44;17.80;67.10
70079;DHT22;57451;52.496;13.456;2023-08-07T07:51:12;17.90;67.30
70079;DHT22;57451;52.496;13.456;2023-08-07T07:53:40;17.90;67.20
70079;DHT22;57451;52.496;13.456;2023-08-07T07:56:07;17.90;66.40
70079;DHT22;57451;52.496;13.456;2023-08-07T07:58:36;17.90;66.90
70079;DHT22;57451;52.496;13.456;2023-08-07T08:01:03;17.90;66.50
70079;DHT22;57451;52.496;13.456;2023-08-07T08:03:30;18.00;66.60
70079;DHT22;57451;52.496;13.456;2023-08-07T08:05:58;18.10;66.90
70079;DHT22;57451;52.496;13.456;2023-08-07T08:08:26;18.10;66.70
70079;DHT22;57451;52.496;13.456;2023-08-07T08:10:55;18.20;66.70
70079;DHT22;57451;52.496;13.456;2023-08-07T08:13:22;18.20;66.60
70079;DHT22;57451;52.496;13.456;2023-08-07T08:15:52;18.30;66.60
70079;DHT22;57451;52.496;13.456;2023-08-07T08:18:19;18.30;66.00
70079;DHT22;57451;52.496;13.456;2023-08-07T08:20:47;18.30;65.90
70079;DHT22;57451;52.496;13.456;2023-08-07T08:23:14;18.30;65.70
70079;DHT22;57451;52.496;13.456;2023-08-07T08:25:41;18.40;66.60
70079;DHT22;57451;52.496;13.456;2023-08-07T08:28:09;18.30;66.20
70079;DHT22;57451;52.496;13.456;2023-08-07T08:30:36;18.40;66.20
70079;DHT22;57451;52.496;13.456;2023-08-07T08:33:05;18.40;66.50
70079;DHT22;57451;52.496;13.456;2023-08-07T08:35:32;18.40;65.90
70079;DHT22;57451;52.496;13.456;2023-08-07T08:38:00;18.40;66.80
70079;DHT22;57451;52.496;13.456;2023-08-07T08:40:28;18.50;66.30
70079;DHT22;57451;52.496;13.456;2023-08-07T08:42:56;18.50;66.70
70079;DHT22;57451;52.496;13.456;2023-08-07T08:45:27;18.50;66.90
70079;DHT22;57451;52.496;13.456;2023-08-07T08:47:56;18.50;66.90
70079;DHT22;57451;52.496;13.456;2023-08-07T08:50:26;18.50;67.30
70079;DHT22;57451;52.496;13.456;2023-08-07T08:52:55;18.50;66.40
70079;DHT22;57451;52.496;13.456;2023-08-07T08:55:23;18.50;66.60
70079;DHT22;57451;52.496;13.456;2023-08-07T08:57:51;18.50;66.80
70079;DHT22;57451;52.496;13.456;2023-08-07T09:00:21;18.50;66.60
70079;DHT22;57451;52.496;13.456;2023-08-07T09:02:51;18.60;66.50
70079;DHT22;57451;52.496;13.456;2023-08-07T09:05:20;18.60;66.10
70079;DHT22;57451;52.496;13.456;2023-08-07T09:07:49;18.60;64.70
70079;DHT22;57451;52.496;13.456;2023-08-07T09:10:17;18.60;65.60
70079;DHT22;57451;52.496;13.456;2023-08-07T09:12:53;18.70;65.60
70079;DHT22;57451;52.496;13.456;2023-08-07T09:15:25;18.70;64.60
70079;DHT22;57451;52.496;13.456;2023-08-07T09:17:54;18.70;64.00
70079;DHT22;57451;52.496;13.456;2023-08-07T09:20:22;18.70;63.60
70079;DHT22;57451;52.496;13.456;2023-08-07T09:22:51;18.80;64.30
70079;DHT22;57451;52.496;13.456;2023-08-07T09:25:27;18.80;64.30
70079;DHT22;57451;52.496;13.456;2023-08-07T09:27:56;18.90;64.50
70079;DHT22;57451;52.496;13.456;2023-08-07T09:30:27;18.80;64.50
70079;DHT22;57451;52.496;13.456;2023-08-07T09:32:56;18.80;64.70
70079;DHT22;57451;52.496;13.456;2023-08-07T09:35:24;18.80;65.50
70079;DHT22;57451;52.496;13.456;2023-08-07T09:37:53;18.80;65.00
70079;DHT22;57451;52.496;13.456;2023-08-07T09:40:20;18.80;65.60
70079;DHT22;57451;52.496;13.456;2023-08-07T09:42:50;18.90;65.70
70079;DHT22;57451;52.496;13.456;2023-08-07T09:45:20;18.90;65.30
70079;DHT22;57451;52.496;13.456;2023-08-07T09:47:57;18.90;65.20
70079;DHT22;57451;52.496;13.456;2023-08-07T09:50:25;19.00;65.30
70079;DHT22;57451;52.496;13.456;2023-08-07T09:52:55;19.10;65.10
70079;DHT22;57451;52.496;13.456;2023-08-07T09:55:23;19.10;64.80
70079;DHT22;57451;52.496;13.456;2023-08-07T09:57:51;19.20;65.30
70079;DHT22;57451;52.496;13.456;2023-08-07T10:00:19;19.20;64.80
70079;DHT22;57451;52.496;13.456;2023-08-07T10:02:48;19.20;64.20
70079;DHT22;57451;52.496;13.456;2023-08-07T10:05:17;19.20;63.70
70079;DHT22;57451;52.496;13.456;2023-08-07T10:07:44;19.30;64.50
70079;DHT22;57451;52.496;13.456;2023-08-07T10:10:15;19.40;63.90
70079;DHT22;57451;52.496;13.456;2023-08-07T10:12:43;19.40;63.70
70079;DHT22;57451;52.496;13.456;2023-08-07T10:15:14;19.40;63.00
70079;DHT22;57451;52.496;13.456;2023-08-07T10:17:42;19.40;63.00
70079;DHT22;57451;52.496;13.456;2023-08-07T10:20:11;19.50;63.40
70079;DHT22;57451;52.496;13.456;2023-08-07T10:22:40;19.50;63.10
70079;DHT22;57451;52.496;13.456;2023-08-07T10:25:08;19.60;62.30
70079;DHT22;57451;52.496;13.456;2023-08-07T10:27:38;19.60;62.00
70079;DHT22;57451;52.496;13.456;2023-08-07T10:30:10;19.70;61.10
70079;DHT22;57451;52.496;13.456;2023-08-07T10:32:41;19.70;61.60
70079;DHT22;57451;52.496;13.456;2023-08-07T10:35:10;19.70;61.30
70079;DHT22;57451;52.496;13.456;2023-08-07T10:37:40;19.60;60.40
70079;DHT22;57451;52.496;13.456;2023-08-07T10:40:09;19.60;60.60
70079;DHT22;57451;52.496;13.456;2023-08-07T10:42:57;19.70;61.10
70079;DHT22;57451;52.496;13.456;2023-08-07T10:45:26;19.70;60.10
70079;DHT22;57451;52.496;13.456;2023-08-07T10:47:58;19.70;60.50
70079;DHT22;57451;52.496;13.456;2023-08-07T10:50:29;19.80;59.80
70079;DHT22;57451;52.496;13.456;2023-08-07T10:53:00;19.80;59.50
70079;DHT22;57451;52.496;13.456;2023-08-07T10:55:31;19.80;59.60
70079;DHT22;57451;52.496;13.456;2023-08-07T10:58:00;19.80;59.60
70079;DHT22;57451;52.496;13.456;2023-08-07T11:00:29;19.80;58.50
70079;DHT22;57451;52.496;13.456;2023-08-07T11:02:58;19.80;59.40
70079;DHT22;57451;52.496;13.456;2023-08-07T11:05:27;19.80;60.60
70079;DHT22;57451;52.496;13.456;2023-08-07T11:07:54;19.80;59.60
70079;DHT22;57451;52.496;13.456;2023-08-07T11:10:22;19.90;59.50
70079;DHT22;57451;52.496;13.456;2023-08-07T11:12:49;19.90;59.50
70079;DHT22;57451;52.496;13.456;2023-08-07T11:15:18;19.80;59.00
70079;DHT22;57451;52.496;13.456;2023-08-07T11:17:45;19.80;60.40
70079;DHT22;57451;52.496;13.456;2023-08-07T11:20:14;19.70;62.30
70079;DHT22;57451;52.496;13.456;2023-08-07T11:22:42;19.60;63.00
70079;DHT22;57451;52.496;13.456;2023-08-07T11:25:10;19.60;63.80
70079;DHT22;57451;52.496;13.456;2023-08-07T11:27:38;19.50;63.60
70079;DHT22;57451;52.496;13.456;2023-08-07T11:30:11;19.50;64.00
70079;DHT22;57451;52.496;13.456;2023-08-07T11:32:40;19.60;64.50
70079;DHT22;57451;52.496;13.456;2023-08-07T11:35:08;19.50;64.90
70079;DHT22;57451;52.496;13.456;2023-08-07T11:37:35;19.50;64.50
70079;DHT22;57451;52.496;13.456;2023-08-07T11:40:03;19.40;64.70
70079;DHT22;57451;52.496;13.456;2023-08-07T11:42:31;19.40;64.70
70079;DHT22;57451;52.496;13.456;2023-08-07T11:44:58;19.40;65.20
70079;DHT22;57451;52.496;13.456;2023-08-07T11:47:26;19.40;65.00
70079;DHT22;57451;52.496;13.456;2023-08-07T11:49:55;19.30;65.40
70079;DHT22;57451;52.496;13.456;2023-08-07T11:52:23;19.30;65.20
70079;DHT22;57451;52.496;13.456;2023-08-07T11:54:52;19.20;65.50
70079;DHT22;57451;52.496;13.456;2023-08-07T11:57:20;19.30;65.90
70079;DHT22;57451;52.496;13.456;2023-08-07T11:59:49;19.30;65.90
70079;DHT22;57451;52.496;13.456;2023-08-07T12:02:17;19.20;65.50
70079;DHT22;57451;52.496;13.456;2023-08-07T12:04:49;19.30;65.90
70079;DHT22;57451;52.496;13.456;2023-08-07T12:07:18;19.40;64.80
70079;DHT22;57451;52.496;13.456;2023-08-07T12:09:47;19.40;65.00
70079;DHT22;57451;52.496;13.456;2023-08-07T12:12:15;19.50;65.60
70079;DHT22;57451;52.496;13.456;2023-08-07T12:14:42;19.60;64.00
70079;DHT22;57451;52.496;13.456;2023-08-07T12:17:09;19.60;64.20
70079;DHT22;57451;52.496;13.456;2023-08-07T12:19:37;19.70;63.10
70079;DHT22;57451;52.496;13.456;2023-08-07T12:22:06;19.80;63.80
70079;DHT22;57451;52.496;13.456;2023-08-07T12:24:36;19.80;62.90
70079;DHT22;57451;52.496;13.456;2023-08-07T12:27:05;19.80;63.30
70079;DHT22;57451;52.496;13.456;2023-08-07T12:29:32;19.80;63.10
70079;DHT22;57451;52.496;13.456;2023-08-07T12:31:59;19.80;62.80
70079;DHT22;57451;52.496;13.456;2023-08-07T12:34:28;19.80;63.20
70079;DHT22;57451;52.496;13.456;2023-08-07T12:36:58;19.90;63.50
70079;DHT22;57451;52.496;13.456;2023-08-07T12:39:26;19.80;63.10
70079;DHT22;57451;52.496;13.456;2023-08-07T12:41:58;19.80;63.10
70079;DHT22;57451;52.496;13.456;2023-08-07T12:44:28;19.70;63.40
70079;DHT22;57451;52.496;13.456;2023-08-07T12:46:56;19.70;63.30
70079;DHT22;57451;52.496;13.456;2023-08-07T12:49:25;19.60;63.20
70079;DHT22;57451;52.496;13.456;2023-08-07T12:51:52;19.50;62.90
70079;DHT22;57451;52.496;13.456;2023-08-07T12:54:20;19.50;63.60
70079;DHT22;57451;52.496;13.456;2023-08-07T12:56:49;19.40;63.00
70079;DHT22;57451;52.496;13.456;2023-08-07T12:59:17;19.30;63.20
70079;DHT22;57451;52.496;13.456;2023-08-07T13:01:45;19.30;63.10
70079;DHT22;57451;52.496;13.456;2023-08-07T13:04:12;19.20;62.60
70079;DHT22;57451;52.496;13.456;2023-08-07T13:06:42;19.20;62.90
70079;DHT22;57451;52.496;13.456;2023-08-07T13:09:09;19.10;62.50
70079;DHT22;57451;52.496;13.456;2023-08-07T13:11:37;19.10;62.50
70079;DHT22;57451;52.496;13.456;2023-08-07T13:14:04;19.10;61.90
70079;DHT22;57451;52.496;13.456;2023-08-07T13:16:33;19.20;61.30
70079;DHT22;57451;52.496;13.456;2023-08-07T13:19:00;19.30;60.10
70079;DHT22;57451;52.496;13.456;2023-08-07T13:21:31;19.40;59.50
70079;DHT22;57451;52.496;13.456;2023-08-07T13:23:58;19.70;58.90
70079;DHT22;57451;52.496;13.456;2023-08-07T13:26:26;19.90;59.30
70079;DHT22;57451;52.496;13.456;2023-08-07T13:28:53;20.20;58.60
70079;DHT22;57451;52.496;13.456;2023-08-07T13:31:21;20.30;57.00
70079;DHT22;57451;52.496;13.456;2023-08-07T13:33:50;20.40;56.30
70079;DHT22;57451;52.496;13.456;2023-08-07T13:36:17;20.50;55.50
70079;DHT22;57451;52.496;13.456;2023-08-07T13:38:44;20.40;53.70
70079;DHT22;57451;52.496;13.456;2023-08-07T13:41:13;20.50;53.40
70079;DHT22;57451;52.496;13.456;2023-08-07T13:43:41;20.60;53.30
70079;DHT22;57451;52.496;13.456;2023-08-07T13:46:08;20.70;51.30
70079;DHT22;57451;52.496;13.456;2023-08-07T13:48:35;20.70;53.00
70079;DHT22;57451;52.496;13.456;2023-08-07T13:51:04;20.80;52.40
70079;DHT22;57451;52.496;13.456;2023-08-07T13:53:34;20.70;50.20
70079;DHT22;57451;52.496;13.456;2023-08-07T13:56:01;20.70;51.40
70079;DHT22;57451;52.496;13.456;2023-08-07T13:58:29;20.80;51.40
70079;DHT22;57451;52.496;13.456;2023-08-07T14:00:56;20.90;51.30
70079;DHT22;57451;52.496;13.456;2023-08-07T14:03:24;20.90;50.10
70079;DHT22;57451;52.496;13.456;2023-08-07T14:05:52;20.80;49.90
70079;DHT22;57451;52.496;13.456;2023-08-07T14:08:21;20.70;50.30
70079;DHT22;57451;52.496;13.456;2023-08-07T14:10:48;20.80;51.00
70079;DHT22;57451;52.496;13.456;2023-08-07T14:13:16;20.70;51.00
70079;DHT22;57451;52.496;13.456;2023-08-07T14:15:43;20.60;50.50
70079;DHT22;57451;52.496;13.456;2023-08-07T14:18:10;20.50;50.30
70079;DHT22;57451;52.496;13.456;2023-08-07T14:20:40;20.50;50.70
70079;DHT22;57451;52.496;13.456;2023-08-07T14:23:29;20.50;50.90
70079;DHT22;57451;52.496;13.456;2023-08-07T14:26:00;20.50;51.30
70079;DHT22;57451;52.496;13.456;2023-08-07T14:28:27;20.40;51.60
70079;DHT22;57451;52.496;13.456;2023-08-07T14:30:57;20.40;51.60
70079;DHT22;57451;52.496;13.456;2023-08-07T14:33:25;20.30;50.70
70079;DHT22;57451;52.496;13.456;2023-08-07T14:35:53;20.20;51.90
70079;DHT22;57451;52.496;13.456;2023-08-07T14:38:20;20.20;51.70
70079;DHT22;57451;52.496;13.456;2023-08-07T14:40:49;20.20;51.10
70079;DHT22;57451;52.496;13.456;2023-08-07T14:43:16;20.10;50.00
70079;DHT22;57451;52.496;13.456;2023-08-07T14:45:44;20.10;51.00
70079;DHT22;57451;52.496;13.456;2023-08-07T14:48:12;20.10;51.90
70079;DHT22;57451;52.496;13.456;2023-08-07T14:50:39;20.10;52.30
70079;DHT22;57451;52.496;13.456;2023-08-07T14:53:07;20.10;50.90
70079;DHT22;57451;52.496;13.456;2023-08-07T14:55:34;20.20;51.60
70079;DHT22;57451;52.496;13.456;2023-08-07T14:58:03;20.20;50.90
70079;DHT22;57451;52.496;13.456;2023-08-07T15:00:30;20.30;51.20
70079;DHT22;57451;52.496;13.456;2023-08-07T15:02:57;20.30;51.00
70079;DHT22;57451;52.496;13.456;2023-08-07T15:05:25;20.30;50.40
70079;DHT22;57451;52.496;13.456;2023-08-07T15:07:52;20.20;49.90
70079;DHT22;57451;52.496;13.456;2023-08-07T15:10:20;20.00;49.90
70079;DHT22;57451;52.496;13.456;2023-08-07T15:12:48;20.00;50.90
70079;DHT22;57451;52.496;13.456;2023-08-07T15:15:17;20.00;50.20
70079;DHT22;57451;52.496;13.456;2023-08-07T15:17:45;19.90;50.40
70079;DHT22;57451;52.496;13.456;2023-08-07T15:20:12;19.80;50.40
70079;DHT22;57451;52.496;13.456;2023-08-07T15:22:39;19.80;49.60